Time,TemperatureF,DewpointF,PressureIn,WindDirection,WindDirectionDegrees,WindSpeedMPH,WindSpeedGustMPH,Humidity,HourlyPrecipIn,Conditions,Clouds,dailyrainin,SoftwareType,DateUTC
2013-06-05 16:30:00,64.9,45.3,30.07,SW,225,5.0,15.0,49,0.00,,SCT150,0.00,VWS V14.00,2013-06-05 20:30:00,
2013-06-05 16:58:00,64.9,45.3,30.07,SW,225,5.0,15.0,49,0.00,,SCT150,0.00,VWS V14.00,2013-06-05 20:58:00,
2013-06-05 17:03:00,64.2,47.2,30.06,SSE,165,3.0,8.0,54,0.00,,SCT200,0.00,VWS V14.00,2013-06-05 21:03:00,
2013-06-05 17:08:00,64.1,48.1,30.06,West,275,2.0,8.0,56,0.00,,SCT200,0.00,VWS V14.00,2013-06-05 21:08:00,
2013-06-05 17:13:00,63.5,47.1,30.07,ENE,69,3.0,12.0,55,0.00,,SCT200,0.00,VWS V14.00,2013-06-05 21:13:00,
2013-06-05 17:18:00,63.0,47.1,30.06,SSW,213,2.0,12.0,56,0.00,,SCT200,0.00,VWS V14.00,2013-06-05 21:18:00,
2013-06-05 17:23:00,62.7,47.3,30.06,WSW,241,4.0,12.0,57,0.00,,SCT200,0.00,VWS V14.00,2013-06-05 21:23:00,
2013-06-05 17:28:00,62.6,47.6,30.06,WNW,282,1.0,10.0,58,0.00,,SCT200,0.00,VWS V14.00,2013-06-05 21:28:00,
2013-06-05 17:33:00,62.0,47.5,30.06,WSW,240,2.0,12.0,59,0.00,,SCT200,0.00,VWS V14.00,2013-06-05 21:33:00,
2013-06-05 17:38:00,61.8,47.8,30.05,WSW,253,2.0,12.0,60,0.00,,SCT200,0.00,VWS V14.00,2013-06-05 21:38:00,
2013-06-05 17:43:00,61.8,47.3,30.05,SW,216,0.0,12.0,59,0.00,,SCT200,0.00,VWS V14.00,2013-06-05 21:43:00,
2013-06-05 17:48:00,61.9,48.8,30.05,West,265,3.0,12.0,62,0.00,,SCT200,0.00,VWS V14.00,2013-06-05 21:48:00,
2013-06-05 17:53:00,61.4,47.8,30.05,SW,228,5.0,12.0,61,0.00,,SCT200,0.00,VWS V14.00,2013-06-05 21:53:00,
2013-06-05 17:58:00,61.0,47.9,30.05,South,180,5.0,5.0,62,0.00,,SCT200,0.00,VWS V14.00,2013-06-05 21:58:00,
2013-06-05 18:03:00,60.8,47.3,30.05,WNW,296,1.0,6.0,61,0.00,,BKN250,0.00,VWS V14.00,2013-06-05 22:03:00,
2013-06-05 18:08:00,60.4,47.8,30.05,SW,223,1.0,6.0,63,0.00,,BKN250,0.00,VWS V14.00,2013-06-05 22:08:00,
2013-06-05 18:13:00,60.4,47.8,30.05,WSW,237,3.0,7.0,63,0.00,,BKN250,0.00,VWS V14.00,2013-06-05 22:13:00,
2013-06-05 18:18:00,60.5,47.9,30.06,NNW,327,4.0,7.0,63,0.00,,BKN250,0.00,VWS V14.00,2013-06-05 22:18:00,
2013-06-05 18:23:00,60.0,47.4,30.06,West,280,2.0,7.0,63,0.00,,BKN250,0.00,VWS V14.00,2013-06-05 22:23:00,
2013-06-05 18:28:00,59.8,48.0,30.06,SW,229,0.0,7.0,65,0.00,,BKN250,0.00,VWS V14.00,2013-06-05 22:28:00,
2013-06-05 18:33:00,60.0,48.2,30.06,NNW,336,2.0,7.0,65,0.00,,BKN250,0.00,VWS V14.00,2013-06-05 22:33:00,
2013-06-05 18:38:00,59.9,48.9,30.06,NNE,24,0.0,7.0,67,0.00,,BKN250,0.00,VWS V14.00,2013-06-05 22:38:00,
2013-06-05 18:43:00,59.9,48.9,30.06,West,263,6.0,7.0,67,0.00,,BKN250,0.00,VWS V14.00,2013-06-05 22:43:00,
2013-06-05 18:48:00,59.7,48.7,30.07,WNW,295,4.0,11.0,67,0.00,,BKN250,0.00,VWS V14.00,2013-06-05 22:48:00,
2013-06-05 18:53:00,59.5,48.9,30.07,WNW,294,4.0,13.0,68,0.00,,BKN250,0.00,VWS V14.00,2013-06-05 22:53:00,
2013-06-05 18:58:00,59.4,48.8,30.07,WSW,248,2.0,7.0,68,0.00,,BKN250,0.00,VWS V14.00,2013-06-05 22:58:00,
2013-06-05 19:03:00,59.2,49.0,30.07,WSW,250,2.0,9.0,69,0.00,,SCT250,0.00,VWS V14.00,2013-06-05 23:03:00,
2013-06-05 19:08:00,59.0,48.9,30.07,WNW,302,0.0,9.0,69,0.00,,SCT250,0.00,VWS V14.00,2013-06-05 23:08:00,
2013-06-05 19:13:00,58.9,48.8,30.08,SSW,199,2.0,9.0,69,0.00,,SCT250,0.00,VWS V14.00,2013-06-05 23:13:00,
2013-06-05 19:18:00,58.7,49.0,30.08,WNW,284,5.0,9.0,70,0.00,,SCT250,0.00,VWS V14.00,2013-06-05 23:18:00,
2013-06-05 19:23:00,58.6,49.2,30.08,West,278,3.0,9.0,71,0.00,,SCT250,0.00,VWS V14.00,2013-06-05 23:23:00,
2013-06-05 19:28:00,58.4,49.4,30.08,West,271,3.0,5.0,72,0.00,,SCT250,0.00,VWS V14.00,2013-06-05 23:28:00,
2013-06-05 19:33:00,58.3,49.7,30.09,WNW,288,2.0,9.0,73,0.00,,SCT250,0.00,VWS V14.00,2013-06-05 23:33:00,
2013-06-05 19:38:00,58.1,49.9,30.08,SW,214,0.0,10.0,74,0.00,,SCT250,0.00,VWS V14.00,2013-06-05 23:38:00,
2013-06-05 19:43:00,58.0,50.1,30.09,West,273,1.0,10.0,75,0.00,,SCT250,0.00,VWS V14.00,2013-06-05 23:43:00,
2013-06-05 19:48:00,57.8,50.3,30.09,West,265,3.0,10.0,76,0.00,,SCT250,0.00,VWS V14.00,2013-06-05 23:48:00,
2013-06-05 19:53:00,57.7,50.2,30.09,West,277,9.0,10.0,76,0.00,,SCT250,0.00,VWS V14.00,2013-06-05 23:53:00,
2013-06-05 19:58:00,57.7,50.5,30.09,WNW,292,2.0,6.0,77,0.00,,SCT250,0.00,VWS V14.00,2013-06-05 23:58:00,
2013-06-05 20:03:00,57.5,50.7,30.08,West,259,1.0,6.0,78,0.00,,BKN250,0.00,VWS V14.00,2013-06-06 00:03:00,
2013-06-05 20:08:00,57.3,50.5,30.08,WNW,298,4.0,6.0,78,0.00,,BKN250,0.00,VWS V14.00,2013-06-06 00:08:00,
2013-06-05 20:13:00,57.2,50.8,30.08,SW,219,2.0,6.0,79,0.00,,BKN250,0.00,VWS V14.00,2013-06-06 00:13:00,
2013-06-05 20:18:00,57.0,50.6,30.09,WSW,242,1.0,6.0,79,0.00,,BKN250,0.00,VWS V14.00,2013-06-06 00:18:00,
2013-06-05 20:23:00,56.8,50.7,30.09,WSW,237,1.0,6.0,80,0.00,,BKN250,0.00,VWS V14.00,2013-06-06 00:23:00,
2013-06-05 20:28:00,56.8,50.7,30.08,SSW,199,3.0,3.0,80,0.00,,BKN250,0.00,VWS V14.00,2013-06-06 00:28:00,
2013-06-05 20:33:00,56.7,50.9,30.09,West,279,0.0,5.0,81,0.00,,BKN250,0.00,VWS V14.00,2013-06-06 00:33:00,
2013-06-05 20:38:00,56.5,50.8,30.09,SSW,211,0.0,5.0,81,0.00,,BKN250,0.00,VWS V14.00,2013-06-06 00:38:00,
2013-06-05 20:43:00,56.2,51.1,30.10,WSW,246,0.0,6.0,83,0.00,,BKN250,0.00,VWS V14.00,2013-06-06 00:43:00,
2013-06-05 20:48:00,55.9,51.1,30.10,WSW,246,0.0,6.0,84,0.00,,BKN250,0.00,VWS V14.00,2013-06-06 00:48:00,
2013-06-05 20:53:00,55.7,51.3,30.09,WSW,241,1.0,6.0,85,0.00,,BKN250,0.00,VWS V14.00,2013-06-06 00:53:00,
2013-06-05 20:58:00,55.5,51.1,30.09,WSW,244,0.0,1.0,85,0.00,,BKN250,0.00,VWS V14.00,2013-06-06 00:58:00,
2013-06-05 21:03:00,55.2,51.1,30.09,West,275,5.0,5.0,86,0.00,,OVC250,0.00,VWS V14.00,2013-06-06 01:03:00,
2013-06-05 21:08:00,55.1,51.0,30.10,SW,223,0.0,5.0,86,0.00,,OVC250,0.00,VWS V14.00,2013-06-06 01:08:00,
2013-06-05 21:13:00,55.0,51.2,30.10,SW,223,3.0,5.0,87,0.00,,OVC250,0.00,VWS V14.00,2013-06-06 01:13:00,
2013-06-05 21:18:00,54.9,51.1,30.10,SW,224,0.0,5.0,87,0.00,,OVC250,0.00,VWS V14.00,2013-06-06 01:18:00,
2013-06-05 21:23:00,55.0,51.5,30.11,SW,232,0.0,5.0,88,0.00,,OVC250,0.00,VWS V14.00,2013-06-06 01:23:00,
2013-06-05 21:28:00,55.0,51.5,30.11,WSW,248,0.0,1.0,88,0.00,,OVC250,0.00,VWS V14.00,2013-06-06 01:28:00,
2013-06-05 21:33:00,54.9,51.4,30.11,SSW,209,0.0,4.0,88,0.00,,OVC250,0.00,VWS V14.00,2013-06-06 01:33:00,
2013-06-05 21:38:00,54.9,51.4,30.11,West,271,2.0,5.0,88,0.00,,OVC250,0.00,VWS V14.00,2013-06-06 01:38:00,
2013-06-05 21:43:00,55.0,51.2,30.11,WNW,283,0.0,5.0,87,0.00,,OVC250,0.00,VWS V14.00,2013-06-06 01:43:00,
2013-06-05 21:48:00,55.1,51.3,30.11,WSW,244,0.0,5.0,87,0.00,,OVC250,0.00,VWS V14.00,2013-06-06 01:48:00,
2013-06-05 21:53:00,55.1,51.3,30.11,SW,227,0.0,5.0,87,0.00,,OVC250,0.00,VWS V14.00,2013-06-06 01:53:00,
2013-06-05 21:58:00,55.2,51.1,30.11,WSW,253,1.0,3.0,86,0.00,,OVC250,0.00,VWS V14.00,2013-06-06 01:58:00,
2013-06-05 22:03:00,55.3,51.2,30.11,WNW,294,2.0,4.0,86,0.00,,BKN250,0.00,VWS V14.00,2013-06-06 02:03:00,
2013-06-05 22:08:00,55.4,51.3,30.11,WNW,288,0.0,6.0,86,0.00,,BKN250,0.00,VWS V14.00,2013-06-06 02:08:00,
2013-06-05 22:13:00,55.5,51.4,30.11,WNW,288,0.0,6.0,86,0.00,,BKN250,0.00,VWS V14.00,2013-06-06 02:13:00,
2013-06-05 22:18:00,55.5,51.1,30.11,WNW,288,0.0,6.0,85,0.00,,BKN250,0.00,VWS V14.00,2013-06-06 02:18:00,
2013-06-05 22:23:00,55.4,51.3,30.11,WNW,288,1.0,6.0,86,0.00,,BKN250,0.00,VWS V14.00,2013-06-06 02:23:00,
2013-06-05 22:28:00,55.4,51.3,30.11,WNW,288,0.0,0.0,86,0.00,,BKN250,0.00,VWS V14.00,2013-06-06 02:28:00,
2013-06-05 22:33:00,55.3,51.2,30.11,WNW,288,0.0,0.0,86,0.00,,BKN250,0.00,VWS V14.00,2013-06-06 02:33:00,
2013-06-05 22:38:00,55.1,51.0,30.11,WNW,288,0.0,0.0,86,0.00,,BKN250,0.00,VWS V14.00,2013-06-06 02:38:00,
2013-06-05 22:43:00,55.1,51.0,30.11,WNW,288,0.0,0.0,86,0.00,,BKN250,0.00,VWS V14.00,2013-06-06 02:43:00,
2013-06-05 22:48:00,54.9,51.1,30.11,WNW,288,0.0,0.0,87,0.00,,BKN250,0.00,VWS V14.00,2013-06-06 02:48:00,
2013-06-05 22:53:00,54.8,51.3,30.11,WNW,288,0.0,0.0,88,0.00,,BKN250,0.00,VWS V14.00,2013-06-06 02:53:00,
2013-06-05 22:58:00,54.7,51.2,30.11,WNW,288,0.0,0.0,88,0.00,,BKN250,0.00,VWS V14.00,2013-06-06 02:58:00,
2013-06-05 23:03:00,54.6,51.1,30.11,WNW,288,0.0,0.0,88,0.00,,SCT250,0.00,VWS V14.00,2013-06-06 03:03:00,
2013-06-05 23:08:00,54.7,51.2,30.11,WNW,288,0.0,1.0,88,0.00,,SCT250,0.00,VWS V14.00,2013-06-06 03:08:00,
2013-06-05 23:13:00,54.5,51.3,30.12,WNW,288,0.0,1.0,89,0.00,,SCT250,0.00,VWS V14.00,2013-06-06 03:13:00,
2013-06-05 23:18:00,54.4,51.2,30.12,WNW,288,0.0,1.0,89,0.00,,SCT250,0.00,VWS V14.00,2013-06-06 03:18:00,
2013-06-05 23:23:00,54.2,51.0,30.12,WNW,288,0.0,1.0,89,0.00,,SCT250,0.00,VWS V14.00,2013-06-06 03:23:00,
2013-06-05 23:28:00,54.1,51.2,30.12,WNW,288,0.0,0.0,90,0.00,,SCT250,0.00,VWS V14.00,2013-06-06 03:28:00,
2013-06-05 23:33:00,54.1,51.2,30.12,WNW,288,0.0,0.0,90,0.00,,SCT250,0.00,VWS V14.00,2013-06-06 03:33:00,
2013-06-05 23:38:00,54.1,51.2,30.12,WNW,288,0.0,0.0,90,0.00,,SCT250,0.00,VWS V14.00,2013-06-06 03:38:00,
2013-06-05 23:43:00,53.9,51.3,30.12,WNW,288,0.0,0.0,91,0.00,,SCT250,0.00,VWS V14.00,2013-06-06 03:43:00,
2013-06-05 23:48:00,53.9,51.3,30.12,WNW,288,0.0,0.0,91,0.00,,SCT250,0.00,VWS V14.00,2013-06-06 03:48:00,
2013-06-05 23:53:00,53.8,51.2,30.12,WNW,288,0.0,0.0,91,0.00,,SCT250,0.00,VWS V14.00,2013-06-06 03:53:00,
2013-06-05 23:58:00,53.5,51.2,30.12,WNW,288,0.0,0.0,92,0.00,,SCT250,0.00,VWS V14.00,2013-06-06 03:58:00,